Time;durP1;ratioP1;P1;durP2;ratioP2;P2;SDS_P1;SDS_P2;PMS_P1;PMS_P2;Temp;Humidity;BMP_temperature;BMP_pressure;BME280_temperature;BME280_humidity;BME280_pressure;Samples;Min_cycle;Max_cycle;Signal;HPM_P1;HPM_P2
2021/12/29 00:00:28;;;;;;;11.25;7.40;;;6.50;99.90;;;;;;5035828;28;20045;-89
2021/12/29 00:02:58;;;;;;;20.27;9.20;;;6.60;99.90;;;;;;5036423;28;20045;-89
2021/12/29 00:05:28;;;;;;;18.67;10.38;;;6.50;99.90;;;;;;5041395;28;20107;-89
2021/12/29 00:07:55;;;;;;;17.65;9.65;;;6.40;99.90;;;;;;5044543;28;20104;-88
2021/12/29 00:10:25;;;;;;;21.27;9.18;;;6.40;99.90;;;;;;5046450;28;20045;-89
2021/12/29 00:12:56;;;;;;;17.10;9.77;;;6.60;99.90;;;;;;5041454;28;20393;-89
2021/12/29 00:15:27;;;;;;;21.55;8.65;;;6.20;99.90;;;;;;5035897;28;20041;-90
2021/12/29 00:17:55;;;;;;;19.48;9.32;;;6.70;99.90;;;;;;5035525;28;20060;-88
2021/12/29 00:20:28;;;;;;;22.60;11.00;;;6.70;99.90;;;;;;5035493;28;20476;-89
2021/12/29 00:22:56;;;;;;;18.00;9.40;;;6.40;99.90;;;;;;5036018;28;20061;-89
2021/12/29 00:25:25;;;;;;;18.98;9.90;;;6.30;99.90;;;;;;5035404;28;20042;-88
2021/12/29 00:27:54;;;;;;;21.77;10.45;;;5.90;99.90;;;;;;5035491;28;20042;-88
2021/12/29 00:30:22;;;;;;;18.88;11.05;;;6.10;99.90;;;;;;5035264;28;20049;-88
2021/12/29 00:32:51;;;;;;;21.40;9.88;;;6.10;99.90;;;;;;5035054;28;20053;-88
2021/12/29 00:35:19;;;;;;;21.88;10.90;;;6.00;99.90;;;;;;5035154;28;20052;-88
2021/12/29 00:37:46;;;;;;;19.77;10.48;;;6.00;99.90;;;;;;5035181;28;20064;-88
2021/12/29 00:40:14;;;;;;;17.70;9.77;;;6.10;99.90;;;;;;5034812;28;20050;-89
2021/12/29 00:42:45;;;;;;;17.48;9.10;;;6.20;99.90;;;;;;5034982;28;20403;-89
2021/12/29 00:45:14;;;;;;;17.45;9.32;;;6.30;99.90;;;;;;5034918;28;20056;-88
2021/12/29 00:47:42;;;;;;;15.40;9.73;;;6.10;99.90;;;;;;5034751;28;20052;-89
2021/12/29 00:50:13;;;;;;;14.18;8.90;;;6.10;99.90;;;;;;5034932;28;20105;-89
2021/12/29 00:52:40;;;;;;;19.63;10.15;;;6.00;99.90;;;;;;5034714;28;20426;-88
2021/12/29 00:55:08;;;;;;;19.80;9.15;;;5.90;99.90;;;;;;5034868;28;20053;-89
2021/12/29 00:57:35;;;;;;;17.63;9.68;;;6.20;99.90;;;;;;5034718;28;20056;-89
2021/12/29 01:00:06;;;;;;;19.02;10.10;;;5.90;99.90;;;;;;5034619;28;20068;-89
2021/12/29 01:02:33;;;;;;;20.33;10.13;;;5.80;99.90;;;;;;5035020;28;20124;-89
2021/12/29 01:05:06;;;;;;;20.30;9.73;;;5.80;99.90;;;;;;5034689;28;20053;-88
2021/12/29 01:07:33;;;;;;;21.40;10.25;;;5.90;99.90;;;;;;5034328;28;20495;-89
2021/12/29 01:10:00;;;;;;;15.55;9.63;;;5.80;99.90;;;;;;5033695;28;20057;-88
2021/12/29 01:12:27;;;;;;;17.33;9.40;;;5.90;99.90;;;;;;5034246;28;20049;-88
2021/12/29 01:14:56;;;;;;;16.48;10.48;;;5.80;99.90;;;;;;5034295;28;20504;-88
2021/12/29 01:17:25;;;;;;;18.23;10.45;;;5.80;99.90;;;;;;5034512;28;20041;-88
2021/12/29 01:19:54;;;;;;;21.83;10.70;;;5.80;99.90;;;;;;5034383;28;20103;-89
2021/12/29 01:22:22;;;;;;;15.52;10.68;;;5.80;99.90;;;;;;5034494;28;20089;-89
2021/12/29 01:24:50;;;;;;;17.27;9.60;;;5.70;99.90;;;;;;5034338;28;20050;-88
2021/12/29 01:27:18;;;;;;;18.25;10.68;;;5.70;99.90;;;;;;5034301;28;20079;-90
2021/12/29 01:29:46;;;;;;;17.77;11.02;;;5.80;99.90;;;;;;5034167;28;20096;-89
2021/12/29 01:32:13;;;;;;;19.23;11.00;;;5.70;99.90;;;;;;5034517;28;20092;-89
2021/12/29 01:34:42;;;;;;;14.85;10.10;;;5.70;99.90;;;;;;5034199;28;20127;-89
2021/12/29 01:37:10;;;;;;;19.13;9.27;;;5.80;99.90;;;;;;5034804;28;20053;-89
2021/12/29 01:39:37;;;;;;;19.38;9.93;;;5.80;99.90;;;;;;5033639;28;20059;-89
2021/12/29 01:42:04;;;;;;;16.17;10.13;;;4.30;99.90;;;;;;5034492;28;20049;-90
2021/12/29 01:44:31;;;;;;;14.30;9.45;;;5.70;99.90;;;;;;5034255;28;20100;-89
2021/12/29 01:47:01;;;;;;;18.50;9.85;;;5.70;99.90;;;;;;5034249;28;20045;-89
2021/12/29 01:49:28;;;;;;;;;;;6.50;99.90;;;;;;5034556;28;20053;-90
2021/12/29 01:52:09;;;;;;;22.65;9.65;;;5.70;99.90;;;;;;5034048;28;19921;-90
2021/12/29 01:54:36;;;;;;;21.25;10.15;;;5.80;99.90;;;;;;5034086;28;20045;-89
2021/12/29 01:57:07;;;;;;;17.73;9.57;;;5.80;99.90;;;;;;5033998;28;20052;-89
2021/12/29 01:59:35;;;;;;;19.50;10.00;;;5.70;99.90;;;;;;5034898;28;20408;-90
2021/12/29 02:02:02;;;;;;;18.77;9.85;;;5.60;99.90;;;;;;5041585;28;20041;-91
2021/12/29 02:04:29;;;;;;;15.32;9.70;;;5.60;99.90;;;;;;5045509;28;20053;-89
2021/12/29 02:06:58;;;;;;;18.02;9.93;;;5.50;99.90;;;;;;5046226;28;20042;-89
2021/12/29 02:09:25;;;;;;;17.13;10.00;;;5.50;99.90;;;;;;5042550;28;20045;-89
2021/12/29 02:11:53;;;;;;;22.20;10.20;;;5.50;99.90;;;;;;5038044;28;20100;-89
2021/12/29 02:14:20;;;;;;;18.38;10.15;;;5.40;99.90;;;;;;5037948;28;20062;-90
2021/12/29 02:16:47;;;;;;;17.23;9.63;;;5.60;99.90;;;;;;5037699;28;20515;-89
2021/12/29 02:19:15;;;;;;;18.85;10.02;;;5.80;99.90;;;;;;5038001;28;20049;-89
2021/12/29 02:21:53;;;;;;;21.60;10.88;;;5.30;99.90;;;;;;5037746;28;20107;-89
2021/12/29 02:24:23;;;;;;;17.00;9.23;;;5.30;99.90;;;;;;5037516;28;20057;-89
2021/12/29 02:26:52;;;;;;;19.92;9.45;;;5.30;99.90;;;;;;5037773;28;20704;-88
2021/12/29 02:29:20;;;;;;;21.42;9.95;;;5.40;99.90;;;;;;5037265;28;20491;-89
2021/12/29 02:31:47;;;;;;;15.40;8.63;;;5.40;99.90;;;;;;5037308;28;20466;-88
2021/12/29 02:34:17;;;;;;;17.55;9.40;;;5.40;99.90;;;;;;5036963;28;20053;-88
2021/12/29 02:36:47;;;;;;;17.73;8.98;;;5.50;99.90;;;;;;5036710;28;20049;-88
2021/12/29 02:39:17;;;;;;;19.15;9.35;;;5.30;99.90;;;;;;5037148;28;20053;-88
2021/12/29 02:41:49;;;;;;;20.33;9.07;;;5.40;99.90;;;;;;5037266;28;20128;-89
2021/12/29 02:44:23;;;;;;;19.10;9.40;;;5.40;99.90;;;;;;5037248;28;20124;-88
2021/12/29 02:46:51;;;;;;;17.27;9.43;;;5.40;99.90;;;;;;5037110;28;20084;-89
2021/12/29 02:49:18;;;;;;;15.38;9.20;;;5.50;99.90;;;;;;5036970;28;20470;-89
2021/12/29 02:51:47;;;;;;;14.43;8.52;;;5.50;99.90;;;;;;5037073;28;20053;-89
2021/12/29 02:54:16;;;;;;;18.13;9.77;;;5.70;99.90;;;;;;5036823;28;20057;-88
2021/12/29 02:56:43;;;;;;;19.95;8.60;;;5.70;99.90;;;;;;5037368;28;20100;-89
2021/12/29 02:59:10;;;;;;;18.77;8.40;;;5.60;99.90;;;;;;5036933;28;20049;-89
2021/12/29 03:01:37;;;;;;;12.50;7.30;;;5.70;99.90;;;;;;5036929;28;20103;-88
2021/12/29 03:04:06;;;;;;;16.27;6.95;;;5.90;99.90;;;;;;5036915;28;20053;-89
2021/12/29 03:06:34;;;;;;;11.60;5.95;;;6.20;99.90;;;;;;5036538;28;20049;-89
2021/12/29 03:09:04;;;;;;;10.85;7.00;;;6.10;99.90;;;;;;5035899;28;20096;-89
2021/12/29 03:11:32;;;;;;;14.88;7.47;;;6.20;99.90;;;;;;5036496;28;20046;-89
2021/12/29 03:13:59;;;;;;;15.50;7.03;;;6.20;99.90;;;;;;5036373;28;20084;-89
2021/12/29 03:16:27;;;;;;;13.32;7.47;;;6.20;99.90;;;;;;5036360;28;20049;-89
2021/12/29 03:18:54;;;;;;;16.20;7.38;;;6.10;99.90;;;;;;5036509;28;20407;-90
2021/12/29 03:21:21;;;;;;;17.65;7.20;;;6.20;99.90;;;;;;5036462;28;20447;-89
2021/12/29 03:23:49;;;;;;;8.93;6.18;;;6.30;99.90;;;;;;5036752;28;20050;-90
2021/12/29 03:26:18;;;;;;;11.55;7.20;;;6.30;99.90;;;;;;5036535;28;20404;-89
2021/12/29 03:28:47;;;;;;;10.88;7.68;;;6.30;99.90;;;;;;5036502;28;20053;-90
2021/12/29 03:31:17;;;;;;;13.57;7.20;;;6.30;99.90;;;;;;5036508;28;20052;-89
2021/12/29 03:33:46;;;;;;;17.55;6.97;;;6.20;99.90;;;;;;5036410;28;20740;-89
2021/12/29 03:36:13;;;;;;;14.03;7.50;;;6.40;99.90;;;;;;5036287;28;20045;-89
2021/12/29 03:38:42;;;;;;;12.38;7.20;;;6.20;99.90;;;;;;5035469;28;20126;-89
2021/12/29 03:41:15;;;;;;;12.48;7.55;;;6.20;99.90;;;;;;5035021;28;20496;-89
2021/12/29 03:43:44;;;;;;;11.15;7.03;;;6.20;99.90;;;;;;5034810;28;20046;-89
2021/12/29 03:46:12;;;;;;;12.43;7.38;;;6.30;99.90;;;;;;5034920;28;20049;-89
2021/12/29 03:48:41;;;;;;;13.13;6.95;;;6.10;99.90;;;;;;5034734;28;20519;-89
2021/12/29 03:51:09;;;;;;;11.88;6.95;;;6.30;99.90;;;;;;5034703;28;20056;-89
2021/12/29 03:53:36;;;;;;;9.15;6.38;;;6.30;99.90;;;;;;5034743;28;20107;-89
2021/12/29 03:56:05;;;;;;;11.45;6.82;;;6.40;99.90;;;;;;5034604;28;20479;-89
2021/12/29 03:58:32;;;;;;;11.10;6.80;;;6.40;99.90;;;;;;5035382;28;20057;-89
2021/12/29 04:01:03;;;;;;;10.05;6.15;;;6.40;99.90;;;;;;5041570;28;20050;-88
2021/12/29 04:03:30;;;;;;;11.80;6.70;;;6.40;99.90;;;;;;5042358;28;20045;-88
2021/12/29 04:05:58;;;;;;;8.40;5.85;;;6.40;99.90;;;;;;5041627;28;20404;-88
2021/12/29 04:08:25;;;;;;;12.68;6.65;;;6.50;99.90;;;;;;5036448;28;20042;-89
2021/12/29 04:10:52;;;;;;;10.88;7.07;;;6.40;99.90;;;;;;5034814;28;20041;-89
2021/12/29 04:13:19;;;;;;;9.95;7.05;;;6.50;99.90;;;;;;5034497;28;20049;-90
2021/12/29 04:15:46;;;;;;;17.02;7.28;;;6.50;99.90;;;;;;5034192;28;20049;-89
2021/12/29 04:18:26;;;;;;;14.05;7.05;;;6.40;99.90;;;;;;5034405;28;20451;-89
2021/12/29 04:20:57;;;;;;;17.00;6.90;;;6.40;99.90;;;;;;5034605;28;20104;-89
2021/12/29 04:23:27;;;;;;;10.90;7.07;;;6.40;99.90;;;;;;5033792;28;20404;-90
2021/12/29 04:25:55;;;;;;;9.68;6.55;;;6.40;99.90;;;;;;5034265;28;20092;-90
2021/12/29 04:28:25;;;;;;;11.52;6.60;;;6.40;99.90;;;;;;5034238;28;20523;-90
2021/12/29 04:30:54;;;;;;;12.32;6.50;;;6.50;99.90;;;;;;5034461;28;20586;-90
2021/12/29 04:33:27;;;;;;;12.27;6.28;;;6.60;99.90;;;;;;5034216;28;20132;-89
2021/12/29 04:35:55;;;;;;;11.63;6.55;;;6.60;99.90;;;;;;5033828;28;20052;-89
2021/12/29 04:38:24;;;;;;;12.50;6.47;;;6.60;99.90;;;;;;4992732;28;1181562;-89
2021/12/29 04:40:53;;;;;;;12.20;6.30;;;6.70;99.90;;;;;;5034930;28;20048;-89
2021/12/29 04:43:20;;;;;;;;;;;6.70;99.90;;;;;;5035243;28;20045;-89
2021/12/29 04:45:48;;;;;;;11.63;6.10;;;6.70;99.90;;;;;;5034811;28;20379;-89
2021/12/29 04:48:16;;;;;;;12.63;5.78;;;6.70;99.90;;;;;;5034713;28;20091;-89
2021/12/29 04:50:50;;;;;;;11.85;5.97;;;6.70;99.90;;;;;;5034655;28;20046;-89
2021/12/29 04:53:20;;;;;;;12.82;7.32;;;6.70;99.90;;;;;;5034539;28;20061;-89
2021/12/29 04:55:49;;;;;;;;;;;6.70;99.90;;;;;;5035061;28;20562;-89
2021/12/29 04:58:18;;;;;;;11.38;5.43;;;6.80;99.90;;;;;;5034309;28;19998;-89
2021/12/29 05:00:47;;;;;;;11.70;5.80;;;6.80;99.90;;;;;;5034079;28;20080;-89
2021/12/29 05:03:15;;;;;;;12.52;6.13;;;7.10;99.90;;;;;;5034170;28;20084;-89
2021/12/29 05:05:54;;;;;;;11.48;6.25;;;6.80;99.90;;;;;;5034308;28;20049;-89
2021/12/29 05:08:25;;;;;;;12.40;6.18;;;6.80;99.90;;;;;;5034445;28;20049;-89
2021/12/29 05:10:56;;;;;;;14.50;6.38;;;6.70;99.90;;;;;;5033491;28;20054;-89
2021/12/29 05:13:24;;;;;;;9.93;6.70;;;5.60;99.90;;;;;;5034575;28;20050;-89
2021/12/29 05:15:51;;;;;;;10.95;6.03;;;6.70;99.90;;;;;;5033724;28;20071;-89
2021/12/29 05:18:18;;;;;;;9.48;5.63;;;6.90;99.90;;;;;;5034340;28;20045;-89
2021/12/29 05:20:45;;;;;;;13.18;6.20;;;6.80;99.90;;;;;;5033996;28;20061;-89
2021/12/29 05:23:13;;;;;;;11.38;7.65;;;6.80;99.90;;;;;;5034253;28;20602;-89
2021/12/29 05:25:41;;;;;;;10.55;6.40;;;6.80;99.90;;;;;;5033950;28;20440;-89
2021/12/29 05:28:09;;;;;;;11.20;6.40;;;7.00;99.90;;;;;;5034330;28;20488;-89
2021/12/29 05:30:37;;;;;;;9.43;6.40;;;7.00;99.90;;;;;;5033995;28;20140;-88
2021/12/29 05:33:05;;;;;;;10.23;6.05;;;6.90;99.90;;;;;;5034003;28;20419;-89
2021/12/29 05:35:33;;;;;;;9.57;6.28;;;6.90;99.90;;;;;;5033371;28;20045;-89
2021/12/29 05:38:00;;;;;;;13.05;6.80;;;6.90;99.90;;;;;;5033911;28;20107;-88
2021/12/29 05:40:28;;;;;;;11.70;6.68;;;6.80;99.90;;;;;;5033615;28;20050;-89
2021/12/29 05:42:58;;;;;;;11.10;6.43;;;7.00;99.90;;;;;;5033817;28;20412;-89
2021/12/29 05:45:28;;;;;;;10.85;6.82;;;7.20;99.90;;;;;;5034102;28;20049;-89
2021/12/29 05:47:56;;;;;;;;;;;7.20;99.90;;;;;;5034530;28;20499;-89
2021/12/29 05:50:26;;;;;;;12.55;5.78;;;7.30;99.90;;;;;;5033904;28;19925;-89
2021/12/29 05:52:54;;;;;;;11.35;5.88;;;7.30;99.90;;;;;;5033528;28;20049;-89
2021/12/29 05:55:22;;;;;;;16.65;7.38;;;7.30;99.90;;;;;;5034084;28;20511;-89
2021/12/29 05:57:49;;;;;;;9.35;5.65;;;7.30;99.90;;;;;;5036621;28;20049;-88
2021/12/29 06:00:20;;;;;;;10.00;6.68;;;7.30;99.90;;;;;;5051895;28;20048;-88
2021/12/29 06:02:47;;;;;;;13.95;6.55;;;7.70;99.90;;;;;;5048739;28;20422;-89
2021/12/29 06:05:15;;;;;;;13.43;6.47;;;7.40;99.90;;;;;;5047331;28;20049;-88
2021/12/29 06:07:43;;;;;;;11.55;6.30;;;7.50;99.90;;;;;;5040939;28;20053;-88
2021/12/29 06:10:11;;;;;;;11.68;6.55;;;7.40;99.90;;;;;;5033807;28;20099;-89
2021/12/29 06:12:39;;;;;;;12.55;6.60;;;7.50;99.90;;;;;;5034031;28;20045;-88
2021/12/29 06:15:07;;;;;;;11.25;5.68;;;7.60;99.90;;;;;;5033319;28;20049;-90
2021/12/29 06:17:35;;;;;;;9.75;6.53;;;7.60;99.90;;;;;;5033629;28;20412;-89
2021/12/29 06:20:04;;;;;;;11.07;6.40;;;7.60;99.90;;;;;;5033240;28;20136;-90
2021/12/29 06:22:31;;;;;;;13.00;6.50;;;7.60;99.90;;;;;;5033113;28;20053;-87
2021/12/29 06:24:58;;;;;;;12.63;7.88;;;7.90;99.90;;;;;;5033410;28;20052;-88
2021/12/29 06:27:26;;;;;;;15.25;8.13;;;7.70;99.90;;;;;;5033152;28;20496;-87
2021/12/29 06:29:53;;;;;;;10.20;6.60;;;7.60;99.90;;;;;;5033328;28;20049;-88
2021/12/29 06:32:23;;;;;;;14.30;7.22;;;7.70;99.90;;;;;;5033540;28;20049;-89
2021/12/29 06:34:51;;;;;;;;;;;7.70;99.90;;;;;;5033479;28;20119;-88
2021/12/29 06:37:18;;;;;;;12.73;7.07;;;8.10;99.90;;;;;;5033130;28;19920;-88
2021/12/29 06:39:46;;;;;;;14.57;7.75;;;7.80;99.90;;;;;;5032436;28;20064;-89
2021/12/29 06:42:15;;;;;;;14.73;7.43;;;7.90;99.90;;;;;;5033115;28;20459;-89
2021/12/29 06:44:43;;;;;;;13.80;8.47;;;7.80;99.90;;;;;;5033547;28;20049;-89
2021/12/29 06:47:10;;;;;;;16.40;8.13;;;7.90;99.90;;;;;;5036229;28;20045;-89
2021/12/29 06:49:37;;;;;;;15.02;8.30;;;7.80;99.90;;;;;;5036418;28;20496;-88
2021/12/29 06:52:06;;;;;;;16.92;9.82;;;7.90;99.90;;;;;;5036748;28;20046;-89
2021/12/29 06:54:34;;;;;;;14.70;8.57;;;7.90;99.90;;;;;;5037148;28;20053;-88
2021/12/29 06:57:02;;;;;;;21.50;9.70;;;8.00;99.90;;;;;;5037154;28;20071;-88
2021/12/29 06:59:29;;;;;;;13.48;9.05;;;7.90;99.90;;;;;;5036467;28;20107;-89
2021/12/29 07:01:56;;;;;;;16.63;8.68;;;8.10;99.90;;;;;;5037161;28;20193;-90
2021/12/29 07:04:24;;;;;;;14.60;8.95;;;7.90;99.90;;;;;;5036535;28;20144;-88
2021/12/29 07:06:51;;;;;;;25.17;10.57;;;7.90;99.90;;;;;;5035935;28;20145;-89
2021/12/29 07:09:20;;;;;;;21.65;10.05;;;7.80;99.90;;;;;;5036586;28;20103;-89
2021/12/29 07:11:47;;;;;;;16.08;9.43;;;7.80;99.90;;;;;;5036411;28;20112;-89
2021/12/29 07:14:15;;;;;;;16.33;9.50;;;7.80;99.90;;;;;;5036495;28;20100;-89
2021/12/29 07:16:44;;;;;;;12.18;8.30;;;7.90;99.90;;;;;;5036444;28;20056;-89
2021/12/29 07:19:11;;;;;;;;;;;8.00;99.90;;;;;;5036930;28;20046;-89
2021/12/29 07:21:38;;;;;;;19.48;9.07;;;8.00;99.90;;;;;;5036146;28;19936;-89
2021/12/29 07:24:09;;;;;;;16.63;9.10;;;8.00;99.90;;;;;;5035934;28;20053;-89
2021/12/29 07:26:39;;;;;;;14.23;8.00;;;7.90;99.90;;;;;;5036348;28;20478;-89
2021/12/29 07:29:06;;;;;;;;;;;8.00;99.90;;;;;;5036428;28;20046;-90
2021/12/29 07:31:34;;;;;;;11.55;7.78;;;8.20;99.90;;;;;;5036013;28;20477;-89
2021/12/29 07:34:01;;;;;;;12.80;7.03;;;7.50;99.90;;;;;;5035984;28;20053;-89
2021/12/29 07:36:28;;;;;;;11.95;7.53;;;8.10;99.90;;;;;;5035922;28;20514;-90
2021/12/29 07:38:55;;;;;;;11.18;7.03;;;8.30;99.90;;;;;;5035529;28;20053;-89
2021/12/29 07:41:22;;;;;;;14.55;7.60;;;8.20;99.90;;;;;;5035874;28;20049;-90
2021/12/29 07:43:51;;;;;;;13.68;7.25;;;8.40;99.90;;;;;;5035706;28;20103;-89
2021/12/29 07:46:21;;;;;;;11.88;7.05;;;8.40;99.90;;;;;;5035527;28;20088;-89
2021/12/29 07:48:50;;;;;;;13.05;7.40;;;8.30;99.90;;;;;;5035395;28;20052;-89
2021/12/29 07:51:18;;;;;;;13.82;7.43;;;8.30;99.90;;;;;;5035737;28;20128;-89
2021/12/29 07:53:45;;;;;;;12.70;6.03;;;8.40;99.90;;;;;;5035307;28;20052;-88
2021/12/29 07:56:12;;;;;;;10.85;6.68;;;8.30;99.90;;;;;;5039628;28;20041;-88
2021/12/29 07:58:40;;;;;;;9.93;6.18;;;8.30;99.90;;;;;;5044770;28;20045;-88
2021/12/29 08:01:10;;;;;;;9.75;5.97;;;8.30;99.90;;;;;;5056649;28;20054;-89
2021/12/29 08:03:39;;;;;;;13.98;6.45;;;8.30;99.90;;;;;;5052577;28;20506;-88
2021/12/29 08:06:07;;;;;;;10.10;5.78;;;8.30;99.90;;;;;;5036035;28;20084;-89
2021/12/29 08:08:34;;;;;;;10.45;6.03;;;8.30;99.90;;;;;;5035222;28;20076;-88
2021/12/29 08:11:01;;;;;;;11.32;6.38;;;8.50;99.90;;;;;;5035364;28;20462;-89
2021/12/29 08:13:28;;;;;;;10.20;6.40;;;8.60;99.90;;;;;;5035311;28;20056;-88
2021/12/29 08:15:55;;;;;;;12.05;5.65;;;8.60;99.90;;;;;;5035010;28;20685;-88
2021/12/29 08:18:24;;;;;;;12.63;6.65;;;8.50;99.90;;;;;;5035396;28;20538;-89
2021/12/29 08:20:51;;;;;;;10.52;6.03;;;8.50;99.90;;;;;;5034892;28;20503;-88
2021/12/29 08:23:20;;;;;;;17.45;7.45;;;8.50;99.90;;;;;;5034660;28;20053;-90
2021/12/29 08:25:49;;;;;;;11.38;5.95;;;8.50;99.90;;;;;;5034870;28;20518;-90
2021/12/29 08:28:20;;;;;;;8.85;5.53;;;8.60;99.90;;;;;;5034860;28;20389;-89
2021/12/29 08:30:47;;;;;;;11.57;6.07;;;8.70;99.90;;;;;;5035624;28;20072;-90
2021/12/29 08:33:14;;;;;;;13.88;6.40;;;8.80;99.90;;;;;;5035166;28;20057;-90
2021/12/29 08:35:43;;;;;;;9.70;5.72;;;8.70;99.90;;;;;;5034361;28;20056;-89
2021/12/29 08:38:10;;;;;;;12.48;6.10;;;8.70;99.90;;;;;;5034631;28;20052;-89
2021/12/29 08:40:39;;;;;;;14.60;6.93;;;8.40;99.90;;;;;;5034060;28;20045;-89
2021/12/29 08:43:06;;;;;;;9.73;5.40;;;8.80;99.90;;;;;;5034803;28;20053;-89
2021/12/29 08:45:34;;;;;;;8.77;4.82;;;8.70;99.90;;;;;;5034552;28;20050;-89
2021/12/29 08:48:02;;;;;;;13.07;5.40;;;8.80;99.90;;;;;;5034731;28;20046;-89
2021/12/29 08:50:31;;;;;;;9.68;5.40;;;8.70;99.90;;;;;;5034956;28;20393;-88
2021/12/29 08:53:02;;;;;;;;;;;8.80;99.90;;;;;;5035123;28;20041;-89
2021/12/29 08:55:29;;;;;;;10.38;4.93;;;8.80;99.90;;;;;;5034187;28;19925;-89
2021/12/29 08:57:56;;;;;;;7.07;4.10;;;8.80;99.90;;;;;;5034332;28;20060;-89
2021/12/29 09:00:24;;;;;;;8.35;5.10;;;8.90;99.90;;;;;;5035151;28;20103;-89
2021/12/29 09:02:51;;;;;;;10.23;5.13;;;8.80;99.90;;;;;;5034798;28;20500;-89
2021/12/29 09:05:21;;;;;;;13.48;5.63;;;9.10;99.90;;;;;;5034709;28;20103;-89
2021/12/29 09:07:49;;;;;;;9.32;5.93;;;8.90;99.90;;;;;;5034673;28;20049;-89
2021/12/29 09:10:20;;;;;;;7.88;4.95;;;8.90;99.90;;;;;;5034638;28;20467;-89
2021/12/29 09:12:49;;;;;;;11.25;5.30;;;7.80;99.90;;;;;;5035109;28;20454;-89
2021/12/29 09:15:17;;;;;;;10.75;6.18;;;9.00;99.90;;;;;;5034786;28;20152;-89
2021/12/29 09:17:44;;;;;;;9.45;6.70;;;9.00;99.90;;;;;;5034898;28;20084;-90
2021/12/29 09:20:16;;;;;;;7.43;4.85;;;9.00;99.90;;;;;;5034512;28;20056;-89
2021/12/29 09:22:44;;;;;;;10.73;6.35;;;10.80;99.90;;;;;;5034694;28;20049;-89
2021/12/29 09:25:11;;;;;;;10.38;5.15;;;9.00;99.90;;;;;;5034438;28;20045;-89
2021/12/29 09:27:39;;;;;;;10.05;4.43;;;9.10;99.90;;;;;;5034912;28;20050;-89
2021/12/29 09:30:07;;;;;;;10.38;4.78;;;9.00;99.90;;;;;;5034470;28;20069;-90
2021/12/29 09:32:35;;;;;;;8.63;4.47;;;9.10;99.90;;;;;;5037243;28;20463;-87
2021/12/29 09:35:02;;;;;;;9.00;3.90;;;9.00;99.90;;;;;;5035353;28;20049;-89
2021/12/29 09:37:30;;;;;;;8.68;4.53;;;9.00;99.90;;;;;;5034670;28;20049;-89
2021/12/29 09:39:57;;;;;;;5.07;3.60;;;9.00;99.90;;;;;;5034257;28;20049;-89
2021/12/29 09:42:27;;;;;;;5.57;3.60;;;9.30;99.90;;;;;;5034592;28;20061;-89
2021/12/29 09:44:56;;;;;;;8.55;4.03;;;9.10;99.90;;;;;;5034740;28;20064;-89
2021/12/29 09:47:23;;;;;;;4.97;3.00;;;9.20;99.90;;;;;;5034742;28;20080;-89
2021/12/29 09:49:51;;;;;;;4.72;3.00;;;9.20;99.90;;;;;;5034775;28;20056;-89
2021/12/29 09:52:18;;;;;;;3.33;1.60;;;9.10;99.90;;;;;;5034949;28;20046;-89
2021/12/29 09:54:45;;;;;;;6.00;2.35;;;9.10;99.90;;;;;;5045122;28;20056;-90
2021/12/29 09:57:13;;;;;;;3.40;2.03;;;9.20;99.90;;;;;;5051783;28;20064;-88
2021/12/29 09:59:40;;;;;;;2.72;1.42;;;9.50;99.90;;;;;;5049516;28;20394;-89
2021/12/29 10:02:08;;;;;;;3.72;2.00;;;8.70;99.90;;;;;;5043888;28;20510;-89
2021/12/29 10:04:37;;;;;;;2.40;1.40;;;9.30;99.90;;;;;;5034921;28;20052;-88
2021/12/29 10:07:16;;;;;;;2.83;1.52;;;9.30;99.90;;;;;;5033943;28;20496;-89
2021/12/29 10:09:44;;;;;;;3.50;1.67;;;9.30;99.90;;;;;;5034233;28;20056;-90
2021/12/29 10:12:18;;;;;;;4.45;2.17;;;9.40;99.90;;;;;;5034724;28;20388;-89
2021/12/29 10:14:49;;;;;;;3.35;1.65;;;9.40;99.90;;;;;;5033992;28;20073;-90
2021/12/29 10:17:18;;;;;;;5.20;1.73;;;9.60;99.90;;;;;;5033765;28;20050;-89
2021/12/29 10:19:45;;;;;;;3.92;1.70;;;9.60;99.90;;;;;;5034350;28;20053;-89
2021/12/29 10:22:21;;;;;;;2.58;1.23;;;9.90;99.90;;;;;;5037140;28;20049;-90
2021/12/29 10:25:03;;;;;;;6.88;1.95;;;9.70;99.90;;;;;;5038236;28;20129;-90
2021/12/29 10:27:32;;;;;;;3.55;2.00;;;9.80;99.90;;;;;;5038068;28;20049;-90
2021/12/29 10:29:59;;;;;;;2.58;1.40;;;9.90;99.90;;;;;;5038272;28;20050;-89
2021/12/29 10:32:27;;;;;;;3.03;1.65;;;9.90;99.90;;;;;;5037649;28;20045;-90
2021/12/29 10:34:55;;;;;;;4.53;1.80;;;9.90;99.90;;;;;;5038469;28;20056;-90
2021/12/29 10:37:24;;;;;;;3.35;1.58;;;9.90;99.90;;;;;;5037448;28;20107;-91
2021/12/29 10:39:56;;;;;;;3.75;1.52;;;10.00;99.90;;;;;;5037697;28;20053;-89
2021/12/29 10:42:26;;;;;;;3.45;1.85;;;10.30;99.90;;;;;;5037623;28;20049;-90
2021/12/29 10:44:55;;;;;;;5.00;1.90;;;10.00;99.90;;;;;;5037510;28;20045;-89
2021/12/29 10:47:25;;;;;;;2.72;1.58;;;10.20;99.90;;;;;;5038956;28;20106;-89
2021/12/29 10:49:58;;;;;;;2.25;1.20;;;10.10;99.90;;;;;;5038584;28;20053;-89
2021/12/29 10:52:33;;;;;;;3.22;1.38;;;10.20;99.90;;;;;;5037678;28;20050;-89
2021/12/29 10:55:02;;;;;;;2.38;0.82;;;10.20;99.90;;;;;;5037183;28;20049;-89
2021/12/29 10:57:29;;;;;;;1.73;0.80;;;10.40;99.90;;;;;;5038160;28;20056;-90
2021/12/29 10:59:59;;;;;;;1.45;0.90;;;10.50;99.90;;;;;;5038292;28;20049;-90
2021/12/29 11:02:29;;;;;;;4.13;1.58;;;10.60;99.90;;;;;;5037881;28;20049;-89
2021/12/29 11:05:01;;;;;;;2.53;1.08;;;10.60;99.90;;;;;;5037746;28;20115;-89
2021/12/29 11:07:30;;;;;;;2.15;0.85;;;10.70;99.90;;;;;;5037554;28;20060;-88
2021/12/29 11:10:07;;;;;;;;;;;10.70;99.90;;;;;;5037876;28;20108;-89
2021/12/29 11:12:45;;;;;;;3.03;1.35;;;10.60;99.90;;;;;;5038350;28;19960;-90
2021/12/29 11:15:17;;;;;;;1.73;0.90;;;10.70;99.90;;;;;;5037247;28;20049;-89
2021/12/29 11:17:44;;;;;;;3.15;1.10;;;10.70;99.90;;;;;;5037929;28;20053;-90
2021/12/29 11:20:18;;;;;;;2.15;1.13;;;10.90;99.90;;;;;;5038402;28;20049;-90
2021/12/29 11:22:46;;;;;;;3.45;1.67;;;10.80;99.90;;;;;;5036863;28;20056;-90
2021/12/29 11:25:13;;;;;;;3.13;1.80;;;10.80;99.90;;;;;;5037781;28;20053;-89
2021/12/29 11:27:42;;;;;;;4.28;1.63;;;10.90;99.90;;;;;;5038095;28;20056;-90
2021/12/29 11:30:12;;;;;;;2.88;1.50;;;11.00;99.90;;;;;;5038011;28;20065;-90
2021/12/29 11:32:41;;;;;;;3.40;1.50;;;11.00;99.90;;;;;;5036114;28;20136;-90
2021/12/29 11:35:10;;;;;;;;;;;11.10;99.90;;;;;;5038097;28;20100;-90
2021/12/29 11:37:42;;;;;;;3.88;1.35;;;11.30;99.90;;;;;;5037277;28;19975;-89
2021/12/29 11:40:11;;;;;;;2.40;1.70;;;11.10;99.90;;;;;;5038641;28;20515;-89
2021/12/29 11:42:39;;;;;;;5.25;1.60;;;11.10;99.90;;;;;;5038235;28;20056;-89
2021/12/29 11:45:08;;;;;;;3.67;1.40;;;11.10;99.90;;;;;;5038225;28;20052;-89
2021/12/29 11:47:37;;;;;;;4.68;1.67;;;11.10;99.90;;;;;;5037887;28;20463;-90
2021/12/29 11:50:08;;;;;;;4.80;1.58;;;11.10;99.90;;;;;;5037380;28;20507;-89
2021/12/29 11:52:59;;;;;;;2.80;1.30;;;11.20;99.90;;;;;;5047880;28;20060;-89
2021/12/29 11:55:31;;;;;;;3.67;1.40;;;11.60;99.90;;;;;;5047881;28;20045;-89
2021/12/29 11:58:11;;;;;;;3.08;1.35;;;11.30;99.90;;;;;;5047630;28;20104;-92
2021/12/29 12:00:38;;;;;;;2.45;1.30;;;11.30;99.90;;;;;;5039563;28;20056;-90
2021/12/29 12:03:09;;;;;;;7.93;1.85;;;11.30;99.90;;;;;;5037398;28;20107;-91
2021/12/29 12:05:40;;;;;;;3.42;2.05;;;11.30;99.90;;;;;;5036909;28;20068;-90
2021/12/29 12:08:11;;;;;;;2.58;0.80;;;11.30;99.90;;;;;;5036154;28;20128;-91
2021/12/29 12:10:39;;;;;;;3.40;1.60;;;11.30;99.90;;;;;;5036707;28;20077;-89
2021/12/29 12:13:22;;;;;;;5.57;2.10;;;11.30;99.90;;;;;;5036674;28;20103;-89
2021/12/29 12:15:50;;;;;;;3.97;1.70;;;11.40;99.90;;;;;;5036560;28;20045;-89
2021/12/29 12:18:17;;;;;;;3.83;1.48;;;11.60;99.90;;;;;;5036375;28;20103;-89
2021/12/29 12:20:46;;;;;;;5.68;1.83;;;11.60;99.90;;;;;;5035983;28;20068;-90
2021/12/29 12:23:26;;;;;;;3.90;1.88;;;11.50;99.90;;;;;;5037795;28;20484;-90
2021/12/29 12:25:55;;;;;;;3.78;1.48;;;11.50;99.90;;;;;;5035537;28;20046;-90
2021/12/29 12:28:24;;;;;;;5.82;1.95;;;11.70;99.90;;;;;;5035969;28;20089;-90
2021/12/29 12:30:55;;;;;;;5.53;1.73;;;11.80;99.90;;;;;;5035710;28;20069;-89
2021/12/29 12:33:27;;;;;;;3.38;1.58;;;11.30;99.90;;;;;;5035923;28;20088;-89
2021/12/29 12:36:06;;;;;;;5.63;1.60;;;11.80;99.90;;;;;;5035557;28;20053;-89
2021/12/29 12:38:36;;;;;;;7.00;1.60;;;11.80;99.90;;;;;;5036026;28;20061;-90
2021/12/29 12:41:07;;;;;;;7.57;1.80;;;11.80;99.90;;;;;;5035715;28;20049;-89
2021/12/29 12:43:36;;;;;;;6.28;2.35;;;11.80;99.90;;;;;;5034899;28;20050;-89
2021/12/29 12:46:04;;;;;;;8.25;2.22;;;11.80;99.90;;;;;;5035975;28;20412;-90
2021/12/29 12:48:35;;;;;;;4.35;1.95;;;11.90;99.90;;;;;;5035032;28;20045;-89
2021/12/29 12:51:15;;;;;;;8.93;2.95;;;11.80;99.90;;;;;;5033216;28;20056;-89
2021/12/29 12:53:47;;;;;;;9.27;3.03;;;11.80;99.90;;;;;;5033930;28;20049;-90
2021/12/29 12:56:16;;;;;;;10.30;3.33;;;12.00;99.90;;;;;;5034661;28;20051;-89
2021/12/29 12:58:44;;;;;;;;;;;11.90;99.90;;;;;;5035029;28;20092;-89